createdAt,value
2023-01-29T00:01:49.323Z,11.33
2023-01-29T00:04:17.962Z,11.83
2023-01-29T00:06:46.375Z,11.27
2023-01-29T00:09:14.849Z,12.33
2023-01-29T00:11:43.659Z,11.23
2023-01-29T00:14:12.093Z,11.80
2023-01-29T00:16:40.586Z,12.50
2023-01-29T00:19:10.438Z,12.20
2023-01-29T00:21:38.799Z,11.70
2023-01-29T00:24:07.496Z,12.27
2023-01-29T00:26:37.620Z,12.87
2023-01-29T00:29:06.035Z,12.87
2023-01-29T00:31:34.745Z,12.23
2023-01-29T00:34:03.664Z,13.30
2023-01-29T00:36:33.423Z,12.43
2023-01-29T00:39:02.755Z,13.57
2023-01-29T00:41:49.126Z,13.77
2023-01-29T00:44:35.145Z,13.47
2023-01-29T00:47:03.794Z,13.77
2023-01-29T00:49:32.231Z,13.07
2023-01-29T00:52:20.445Z,13.87
2023-01-29T00:54:49.008Z,12.60
2023-01-29T00:57:17.399Z,12.47
2023-01-29T00:59:45.776Z,12.47
2023-01-29T01:02:31.804Z,12.60
2023-01-29T01:05:02.418Z,12.70
2023-01-29T01:07:32.180Z,12.67
2023-01-29T01:10:18.472Z,12.67
2023-01-29T01:12:47.075Z,13.13
2023-01-29T01:15:15.601Z,12.73
2023-01-29T01:17:44.159Z,12.90
2023-01-29T01:20:13.114Z,13.17
2023-01-29T01:22:42.857Z,12.40
2023-01-29T01:25:11.659Z,13.67
2023-01-29T01:27:41.406Z,13.50
2023-01-29T01:30:11.423Z,13.70
2023-01-29T01:32:40.186Z,14.23
2023-01-29T01:35:10.193Z,14.50
2023-01-29T01:37:38.794Z,13.83
2023-01-29T01:40:12.805Z,14.73
2023-01-29T01:42:41.380Z,14.37
2023-01-29T01:45:10.317Z,14.97
2023-01-29T01:47:39.921Z,15.67
2023-01-29T01:50:10.276Z,15.83
2023-01-29T01:52:39.452Z,15.30
2023-01-29T01:55:09.671Z,16.17
2023-01-29T01:57:38.039Z,15.90
2023-01-29T02:00:11.301Z,16.03
2023-01-29T02:02:57.769Z,16.57
2023-01-29T02:05:43.896Z,16.73
2023-01-29T02:08:29.744Z,16.97
2023-01-29T02:10:59.535Z,16.00
2023-01-29T02:13:28.209Z,17.33
2023-01-29T02:15:56.665Z,16.40
2023-01-29T02:18:25.044Z,17.23
2023-01-29T02:20:59.287Z,17.10
2023-01-29T02:23:42.119Z,16.47
2023-01-29T02:26:25.460Z,17.20
2023-01-29T02:28:56.117Z,16.83
2023-01-29T02:31:26.456Z,17.47
2023-01-29T02:33:57.727Z,17.23
2023-01-29T02:36:29.385Z,17.23
2023-01-29T02:39:00.341Z,16.90
2023-01-29T02:41:29.481Z,17.17
2023-01-29T02:44:01.163Z,17.33
2023-01-29T02:46:31.155Z,17.30
2023-01-29T02:49:00.341Z,17.37
2023-01-29T02:51:29.523Z,16.20
2023-01-29T02:53:59.878Z,16.27
2023-01-29T02:56:29.587Z,16.43
2023-01-29T02:59:01.272Z,15.60
2023-01-29T03:01:30.820Z,16.43
2023-01-29T03:03:59.982Z,15.10
2023-01-29T03:06:29.090Z,15.80
2023-01-29T03:08:58.291Z,15.63
2023-01-29T03:11:26.662Z,14.53
2023-01-29T03:13:55.262Z,15.43
2023-01-29T03:16:26.216Z,14.97
2023-01-29T03:18:55.885Z,15.40
2023-01-29T03:21:43.434Z,14.43
2023-01-29T03:24:29.876Z,15.33
2023-01-29T03:27:16.374Z,16.03
2023-01-29T03:30:02.244Z,15.13
2023-01-29T03:32:32.077Z,14.50
2023-01-29T03:35:01.054Z,14.80
2023-01-29T03:37:29.615Z,15.10
2023-01-29T03:39:57.995Z,15.27
2023-01-29T03:42:27.348Z,14.77
2023-01-29T03:44:56.953Z,14.67
2023-01-29T03:47:26.332Z,14.23
2023-01-29T03:49:58.391Z,14.30
2023-01-29T03:52:27.800Z,15.50
2023-01-29T03:54:57.453Z,15.07
2023-01-29T03:57:27.241Z,14.67
2023-01-29T03:59:57.308Z,15.03
2023-01-29T04:02:28.526Z,15.00
2023-01-29T04:04:58.531Z,14.47
2023-01-29T04:07:26.824Z,14.87
2023-01-29T04:09:56.541Z,14.30
2023-01-29T04:12:27.457Z,13.87
2023-01-29T04:14:55.810Z,14.63
2023-01-29T04:17:25.325Z,15.27
2023-01-29T04:19:53.752Z,14.53
2023-01-29T04:22:24.182Z,14.63
2023-01-29T04:24:52.502Z,14.77
2023-01-29T04:27:25.584Z,14.43
2023-01-29T04:29:59.928Z,13.60
2023-01-29T04:32:28.989Z,13.93
2023-01-29T04:35:01.731Z,14.73
2023-01-29T04:37:34.811Z,14.77
2023-01-29T04:40:05.414Z,14.53
2023-01-29T04:42:35.496Z,14.53
2023-01-29T04:45:06.680Z,13.70
2023-01-29T04:47:36.405Z,13.87
2023-01-29T04:50:05.328Z,14.20
2023-01-29T04:52:36.147Z,14.10
2023-01-29T04:55:05.934Z,14.93
2023-01-29T04:57:35.617Z,15.33
2023-01-29T05:00:05.166Z,13.70
2023-01-29T05:02:33.671Z,14.37
2023-01-29T05:05:02.483Z,14.93
2023-01-29T05:07:30.837Z,14.60
2023-01-29T05:10:00.522Z,14.40
2023-01-29T05:12:29.143Z,15.07
2023-01-29T05:14:57.428Z,14.80
2023-01-29T05:17:25.823Z,14.77
2023-01-29T05:19:54.133Z,15.73
2023-01-29T05:22:23.357Z,16.20
2023-01-29T05:24:51.840Z,15.00
2023-01-29T05:27:39.826Z,16.80
2023-01-29T05:30:08.730Z,16.57
2023-01-29T05:32:37.061Z,16.43
2023-01-29T05:35:05.522Z,15.83
2023-01-29T05:37:33.824Z,16.33
2023-01-29T05:40:02.170Z,16.53
2023-01-29T05:42:31.872Z,15.53
2023-01-29T05:45:00.347Z,15.73
2023-01-29T05:47:28.857Z,16.77
2023-01-29T05:49:57.229Z,16.67
2023-01-29T05:52:25.548Z,16.40
2023-01-29T05:54:53.927Z,16.63
2023-01-29T05:57:22.238Z,15.73
2023-01-29T05:59:51.971Z,16.23
2023-01-29T06:02:21.309Z,16.43
2023-01-29T06:04:49.712Z,16.40
2023-01-29T06:07:18.224Z,16.30
2023-01-29T06:09:46.510Z,16.17
2023-01-29T06:12:14.864Z,16.33
2023-01-29T06:14:43.279Z,15.33
2023-01-29T06:17:13.025Z,16.37
2023-01-29T06:19:41.365Z,16.43
2023-01-29T06:22:09.878Z,16.30
2023-01-29T06:24:38.242Z,16.97
2023-01-29T06:27:06.835Z,17.07
2023-01-29T06:29:35.165Z,16.20
2023-01-29T06:32:03.650Z,17.20
2023-01-29T06:34:33.486Z,17.07
2023-01-29T06:37:01.799Z,15.47
2023-01-29T06:39:30.227Z,17.30
2023-01-29T06:41:58.602Z,16.63
2023-01-29T06:44:26.931Z,16.90
2023-01-29T06:46:55.278Z,16.70
2023-01-29T06:49:23.646Z,17.57
2023-01-29T06:51:53.388Z,17.07
2023-01-29T06:54:21.704Z,17.50
2023-01-29T06:56:50.041Z,16.77
2023-01-29T06:59:18.327Z,17.37
2023-01-29T07:01:46.770Z,17.20
2023-01-29T07:04:15.237Z,16.70
2023-01-29T07:06:43.644Z,15.90
2023-01-29T07:09:14.809Z,17.87
2023-01-29T07:11:43.191Z,15.97
2023-01-29T07:14:11.461Z,17.00
2023-01-29T07:16:39.922Z,17.80
2023-01-29T07:19:08.307Z,16.67
2023-01-29T07:21:36.602Z,17.43
2023-01-29T07:24:05.093Z,17.43
2023-01-29T07:26:34.871Z,18.60
2023-01-29T07:29:03.216Z,17.70
2023-01-29T07:31:31.659Z,17.87
2023-01-29T07:34:00.172Z,18.57
2023-01-29T07:36:28.545Z,18.00
2023-01-29T07:38:59.919Z,18.30
2023-01-29T07:41:28.370Z,18.33
2023-01-29T07:43:58.104Z,17.87
2023-01-29T07:46:26.548Z,18.53
2023-01-29T07:48:54.980Z,18.60
2023-01-29T07:51:23.445Z,18.47
2023-01-29T07:53:51.968Z,18.80
2023-01-29T07:56:20.448Z,19.03
2023-01-29T07:58:48.790Z,17.17
2023-01-29T08:01:18.655Z,18.67
2023-01-29T08:03:47.077Z,19.17
2023-01-29T08:06:15.421Z,18.77
2023-01-29T08:08:43.947Z,18.70
2023-01-29T08:11:12.454Z,19.20
2023-01-29T08:13:40.773Z,19.30
2023-01-29T08:16:09.675Z,18.67
2023-01-29T08:18:42.444Z,19.00
2023-01-29T08:21:13.023Z,18.43
2023-01-29T08:23:42.257Z,19.20
2023-01-29T08:26:10.635Z,19.63
2023-01-29T08:28:39.751Z,18.97
2023-01-29T08:31:14.610Z,19.83
2023-01-29T08:33:44.491Z,18.20
2023-01-29T08:36:12.869Z,19.93
2023-01-29T08:38:41.307Z,19.90
2023-01-29T08:41:09.788Z,20.20
2023-01-29T08:43:39.887Z,19.97
2023-01-29T08:46:08.523Z,19.70
2023-01-29T08:48:37.076Z,20.63
2023-01-29T08:51:07.014Z,20.07
2023-01-29T08:53:35.393Z,19.63
2023-01-29T08:56:03.923Z,20.07
2023-01-29T08:58:32.277Z,20.27
2023-01-29T09:01:07.097Z,21.13
2023-01-29T09:03:35.435Z,21.20
2023-01-29T09:06:03.807Z,19.73
2023-01-29T09:08:33.514Z,20.53
2023-01-29T09:11:01.847Z,20.03
2023-01-29T09:13:30.227Z,21.07
2023-01-29T09:16:00.441Z,21.33
2023-01-29T09:18:28.927Z,21.40
2023-01-29T09:20:57.493Z,21.77
2023-01-29T09:23:25.882Z,21.13
2023-01-29T09:25:55.718Z,19.57
2023-01-29T09:28:24.163Z,20.80
2023-01-29T09:30:52.595Z,22.03
2023-01-29T09:33:21.080Z,21.57
2023-01-29T09:35:49.499Z,21.30
2023-01-29T09:38:17.982Z,22.17
2023-01-29T09:40:51.412Z,20.90
2023-01-29T09:43:22.073Z,21.60
2023-01-29T09:45:52.306Z,21.63
2023-01-29T09:48:20.705Z,22.30
2023-01-29T09:50:49.229Z,22.30
2023-01-29T09:53:19.352Z,24.23
2023-01-29T09:55:48.476Z,22.10
2023-01-29T09:58:19.294Z,21.73
2023-01-29T10:00:50.340Z,22.40
2023-01-29T10:03:25.699Z,21.53
2023-01-29T10:05:57.539Z,22.70
2023-01-29T10:08:33.013Z,22.30
2023-01-29T10:11:02.256Z,22.00
2023-01-29T10:13:31.860Z,22.60
2023-01-29T10:16:07.715Z,22.47
2023-01-29T10:18:48.748Z,20.97
2023-01-29T10:21:22.407Z,22.57
2023-01-29T10:23:51.582Z,21.60
2023-01-29T10:26:20.663Z,23.20
2023-01-29T10:28:50.706Z,23.93
2023-01-29T10:31:20.934Z,22.57
2023-01-29T10:34:01.487Z,22.70
2023-01-29T10:36:34.336Z,22.57
2023-01-29T10:39:02.725Z,23.53
2023-01-29T10:41:42.765Z,22.90
2023-01-29T10:44:16.110Z,22.90
2023-01-29T10:46:50.110Z,23.73
2023-01-29T10:49:22.308Z,21.17
2023-01-29T10:51:54.651Z,23.47
2023-01-29T10:54:27.719Z,23.50
2023-01-29T10:56:59.269Z,22.50
2023-01-29T10:59:34.758Z,21.83
2023-01-29T11:02:06.680Z,23.23
2023-01-29T11:04:35.395Z,22.97
2023-01-29T11:07:03.842Z,22.17
2023-01-29T11:09:33.066Z,23.50
2023-01-29T11:12:02.492Z,21.53
2023-01-29T11:14:31.724Z,21.97
2023-01-29T11:17:00.126Z,22.07
2023-01-29T11:19:39.284Z,22.40
2023-01-29T11:22:09.619Z,24.27
2023-01-29T11:24:38.287Z,23.13
2023-01-29T11:27:15.015Z,23.23
2023-01-29T11:29:43.640Z,23.23
2023-01-29T11:32:14.979Z,22.87
2023-01-29T11:35:00.903Z,24.50
2023-01-29T11:37:38.672Z,24.93
2023-01-29T11:40:30.521Z,22.30
2023-01-29T11:42:58.963Z,21.67
2023-01-29T11:45:34.845Z,24.00
2023-01-29T11:48:08.738Z,24.17
2023-01-29T11:50:38.383Z,24.30
2023-01-29T11:53:07.415Z,22.60
2023-01-29T11:55:49.757Z,22.80
2023-01-29T11:58:19.195Z,23.33
2023-01-29T12:00:48.126Z,23.37
2023-01-29T12:03:17.485Z,21.63
2023-01-29T12:05:56.129Z,22.20
2023-01-29T12:08:24.544Z,23.40
2023-01-29T12:10:52.896Z,22.50
2023-01-29T12:13:26.825Z,21.73
2023-01-29T12:16:07.095Z,22.43
2023-01-29T12:18:37.462Z,21.90
2023-01-29T12:21:07.730Z,22.80
2023-01-29T12:23:38.193Z,22.43
2023-01-29T12:26:07.447Z,21.87
2023-01-29T12:28:45.717Z,20.40
2023-01-29T12:31:17.660Z,21.63
2023-01-29T12:33:55.904Z,21.83
2023-01-29T12:36:27.033Z,21.17
2023-01-29T12:38:55.559Z,21.60
2023-01-29T12:41:35.283Z,22.00
2023-01-29T12:44:04.948Z,20.17
2023-01-29T12:46:34.074Z,21.80
2023-01-29T12:49:03.485Z,21.53
2023-01-29T12:51:33.431Z,21.03
2023-01-29T12:54:02.497Z,20.53
2023-01-29T12:56:31.199Z,20.67
2023-01-29T12:58:59.674Z,22.37
2023-01-29T13:01:31.208Z,20.87
2023-01-29T13:04:00.825Z,22.17
2023-01-29T13:06:30.614Z,20.10
2023-01-29T13:09:00.844Z,20.27
2023-01-29T13:11:30.168Z,20.93
2023-01-29T13:14:00.324Z,20.33
2023-01-29T13:16:29.126Z,22.07
2023-01-29T13:18:58.054Z,20.77
2023-01-29T13:21:27.450Z,19.63
2023-01-29T13:23:56.764Z,18.80
2023-01-29T13:26:28.088Z,20.67
2023-01-29T13:28:56.502Z,20.47
2023-01-29T13:31:31.767Z,20.47
2023-01-29T13:34:03.309Z,20.27
2023-01-29T13:36:31.831Z,20.77
2023-01-29T13:39:02.014Z,20.20
2023-01-29T13:41:35.219Z,21.10
2023-01-29T13:44:03.715Z,20.00
2023-01-29T13:46:32.082Z,18.03
2023-01-29T13:49:04.806Z,20.33
2023-01-29T13:51:35.556Z,19.07
2023-01-29T13:54:04.864Z,18.60
2023-01-29T13:56:45.200Z,18.77
2023-01-29T13:59:23.011Z,18.87
2023-01-29T14:02:19.804Z,19.03
2023-01-29T14:04:48.189Z,19.60
2023-01-29T14:07:35.068Z,18.03
2023-01-29T14:10:04.948Z,18.20
2023-01-29T14:12:35.311Z,17.13
2023-01-29T14:15:05.673Z,17.33
2023-01-29T14:17:34.051Z,17.47
2023-01-29T14:20:04.318Z,19.27
2023-01-29T14:22:34.574Z,18.67
2023-01-29T14:25:03.715Z,17.43
2023-01-29T14:27:32.128Z,17.50
2023-01-29T14:30:03.017Z,18.00
2023-01-29T14:32:31.407Z,18.40
2023-01-29T14:35:01.609Z,17.40
2023-01-29T14:37:31.249Z,18.37
2023-01-29T14:39:59.913Z,17.37
2023-01-29T14:42:28.987Z,17.23
2023-01-29T14:45:01.003Z,18.07
2023-01-29T14:47:47.881Z,17.73
2023-01-29T14:50:34.937Z,17.27
2023-01-29T14:53:05.551Z,15.43
2023-01-29T14:55:41.025Z,17.47
2023-01-29T14:58:11.975Z,16.03
2023-01-29T15:00:40.775Z,16.63
2023-01-29T15:03:14.163Z,14.30
2023-01-29T15:05:42.570Z,17.07
2023-01-29T15:08:15.356Z,16.87
2023-01-29T15:10:45.741Z,15.53
2023-01-29T15:13:15.606Z,16.47
2023-01-29T15:15:45.599Z,16.77
2023-01-29T15:18:15.294Z,17.43
2023-01-29T15:20:44.091Z,16.10
2023-01-29T15:23:27.436Z,17.93
2023-01-29T15:25:56.168Z,16.70
2023-01-29T15:28:24.676Z,16.27
2023-01-29T15:30:54.009Z,16.00
2023-01-29T15:33:22.648Z,17.67
2023-01-29T15:35:58.850Z,17.00
2023-01-29T15:38:35.537Z,17.87
2023-01-29T15:41:04.270Z,19.20
2023-01-29T15:43:32.969Z,17.37
2023-01-29T15:46:01.888Z,17.27
2023-01-29T15:48:32.984Z,17.93
2023-01-29T15:51:01.491Z,18.73
2023-01-29T15:53:38.876Z,18.57
2023-01-29T15:56:11.143Z,18.53
2023-01-29T15:58:39.708Z,18.33
2023-01-29T16:01:08.408Z,18.13
2023-01-29T16:03:37.696Z,18.10
2023-01-29T16:06:07.392Z,18.83
2023-01-29T16:08:35.764Z,17.57
2023-01-29T16:11:04.609Z,18.87
2023-01-29T16:13:34.744Z,18.77
2023-01-29T16:16:04.293Z,19.00
2023-01-29T16:18:35.233Z,18.87
2023-01-29T16:21:05.744Z,18.13
2023-01-29T16:23:37.505Z,17.87
2023-01-29T16:26:07.417Z,20.20
2023-01-29T16:28:37.226Z,19.10
2023-01-29T16:31:05.948Z,18.07
2023-01-29T16:33:35.229Z,18.60
2023-01-29T16:36:05.782Z,18.43
2023-01-29T16:38:34.526Z,17.67
2023-01-29T16:41:06.787Z,18.73
2023-01-29T16:43:49.156Z,18.87
2023-01-29T16:46:27.427Z,18.63
2023-01-29T16:48:55.944Z,19.17
2023-01-29T16:51:25.927Z,18.97
2023-01-29T16:53:54.889Z,16.37
2023-01-29T16:56:23.617Z,18.33
2023-01-29T16:58:53.541Z,17.33
2023-01-29T17:01:22.023Z,18.10
2023-01-29T17:03:52.244Z,18.87
2023-01-29T17:06:21.253Z,18.53
2023-01-29T17:08:49.584Z,19.53
2023-01-29T17:11:25.766Z,18.20
2023-01-29T17:13:56.341Z,18.57
2023-01-29T17:16:25.212Z,19.40
2023-01-29T17:18:53.653Z,20.67
2023-01-29T17:21:22.204Z,18.63
2023-01-29T17:23:50.598Z,18.77
2023-01-29T17:26:18.978Z,17.73
2023-01-29T17:28:47.546Z,19.77
2023-01-29T17:31:17.363Z,18.53
2023-01-29T17:33:47.055Z,19.40
2023-01-29T17:36:16.121Z,18.80
2023-01-29T17:38:44.694Z,18.27
2023-01-29T17:41:14.043Z,18.97
2023-01-29T17:43:44.171Z,17.03
2023-01-29T17:46:13.974Z,18.73
2023-01-29T17:48:46.073Z,18.13
2023-01-29T17:51:15.514Z,18.47
2023-01-29T17:53:46.254Z,18.83
2023-01-29T17:56:18.416Z,18.07
2023-01-29T17:58:46.810Z,16.87
2023-01-29T18:01:15.208Z,18.63
2023-01-29T18:03:44.993Z,19.57
2023-01-29T18:06:13.440Z,17.93
2023-01-29T18:08:41.812Z,18.67
2023-01-29T18:11:10.934Z,19.60
2023-01-29T18:13:41.808Z,19.10
2023-01-29T18:16:10.449Z,18.03
2023-01-29T18:18:38.948Z,20.13
2023-01-29T18:21:08.982Z,19.73
2023-01-29T18:23:37.416Z,17.87
2023-01-29T18:26:06.913Z,19.20
2023-01-29T18:28:35.472Z,19.03
2023-01-29T18:31:04.088Z,19.90
2023-01-29T18:33:34.395Z,19.37
2023-01-29T18:36:04.898Z,19.17
2023-01-29T18:38:35.750Z,19.97
2023-01-29T18:41:05.065Z,19.70
2023-01-29T18:43:33.863Z,19.90
2023-01-29T18:46:02.358Z,16.83
2023-01-29T18:48:31.542Z,18.43
2023-01-29T18:50:59.955Z,16.87
2023-01-29T18:53:28.430Z,20.37
2023-01-29T18:55:59.127Z,18.43
2023-01-29T18:58:36.413Z,19.43
2023-01-29T19:01:09.406Z,18.90
2023-01-29T19:03:38.157Z,19.13
2023-01-29T19:06:07.132Z,19.37
2023-01-29T19:08:35.740Z,20.27
2023-01-29T19:11:09.038Z,20.53
2023-01-29T19:13:37.982Z,19.37
2023-01-29T19:16:08.236Z,19.23
2023-01-29T19:18:36.798Z,19.87
2023-01-29T19:21:07.924Z,19.57
2023-01-29T19:23:36.263Z,19.60
2023-01-29T19:26:06.204Z,19.50
2023-01-29T19:28:34.543Z,19.43
2023-01-29T19:31:03.170Z,19.37
2023-01-29T19:33:31.739Z,20.20
2023-01-29T19:36:00.331Z,18.37
2023-01-29T19:38:28.821Z,20.20
2023-01-29T19:40:57.659Z,19.23
2023-01-29T19:43:27.924Z,19.60
2023-01-29T19:45:59.100Z,19.13
2023-01-29T19:48:27.977Z,19.90
2023-01-29T19:50:56.574Z,18.73
2023-01-29T19:53:24.971Z,18.30
2023-01-29T19:56:00.703Z,19.07
2023-01-29T19:58:38.965Z,19.03
2023-01-29T20:01:08.348Z,17.53
2023-01-29T20:03:38.035Z,17.97
2023-01-29T20:06:06.867Z,17.53
2023-01-29T20:08:35.401Z,17.47
2023-01-29T20:11:04.386Z,17.70
2023-01-29T20:13:32.932Z,16.63
2023-01-29T20:16:03.933Z,17.17
2023-01-29T20:18:32.457Z,16.30
2023-01-29T20:21:00.935Z,15.43
2023-01-29T20:23:37.630Z,16.10
2023-01-29T20:26:08.496Z,16.67
2023-01-29T20:28:37.437Z,14.67
2023-01-29T20:31:07.588Z,16.23
2023-01-29T20:33:38.808Z,15.67
2023-01-29T20:36:08.258Z,16.17
2023-01-29T20:38:36.995Z,15.23
2023-01-29T20:41:06.047Z,16.07
2023-01-29T20:43:34.738Z,15.63
2023-01-29T20:46:04.261Z,15.97
2023-01-29T20:48:34.267Z,15.93
2023-01-29T20:51:06.492Z,14.80
2023-01-29T20:53:35.355Z,13.27
2023-01-29T20:56:04.812Z,12.50
2023-01-29T20:58:33.751Z,13.40
2023-01-29T21:01:02.435Z,13.23
2023-01-29T21:03:31.157Z,10.27
2023-01-29T21:06:01.061Z,6.73
2023-01-29T21:08:32.682Z,6.43
2023-01-29T21:11:01.158Z,5.10
2023-01-29T21:13:29.650Z,5.57
2023-01-29T21:15:58.191Z,6.00
2023-01-29T21:18:26.816Z,5.97
2023-01-29T21:20:55.337Z,5.23
2023-01-29T21:23:25.128Z,6.20
2023-01-29T21:25:53.527Z,6.27
2023-01-29T21:28:22.193Z,5.77
2023-01-29T21:30:50.698Z,5.83
2023-01-29T21:33:19.182Z,4.87
2023-01-29T21:35:47.575Z,5.30
2023-01-29T21:38:16.041Z,5.60
2023-01-29T21:40:45.825Z,5.10
2023-01-29T21:43:13.652Z,4.77
2023-01-29T21:45:42.367Z,4.77
2023-01-29T21:48:10.941Z,5.03
2023-01-29T21:50:39.352Z,5.90
2023-01-29T21:53:07.968Z,5.37
2023-01-29T21:55:36.307Z,5.43
2023-01-29T21:58:14.394Z,5.10
2023-01-29T22:00:43.202Z,4.50
2023-01-29T22:03:11.639Z,4.67
2023-01-29T22:05:40.504Z,4.60
2023-01-29T22:08:19.203Z,4.60
2023-01-29T22:10:47.774Z,7.43
2023-01-29T22:13:17.755Z,7.53
2023-01-29T22:15:46.302Z,6.70
2023-01-29T22:18:14.970Z,7.10
2023-01-29T22:20:43.333Z,12.20
2023-01-29T22:23:12.748Z,52.30
2023-01-29T22:25:42.535Z,50.63
2023-01-29T22:28:11.033Z,31.27
2023-01-29T22:30:43.880Z,19.37
2023-01-29T22:33:12.312Z,11.00
2023-01-29T22:35:40.732Z,6.80
2023-01-29T22:38:09.119Z,6.30
2023-01-29T22:40:37.899Z,5.97
2023-01-29T22:43:06.275Z,6.37
2023-01-29T22:45:34.645Z,5.80
2023-01-29T22:48:05.653Z,6.17
2023-01-29T22:50:35.157Z,4.97
2023-01-29T22:53:03.802Z,5.77
2023-01-29T22:55:34.132Z,5.73
2023-01-29T22:58:02.761Z,6.60
2023-01-29T23:00:31.288Z,6.67
2023-01-29T23:02:59.736Z,6.57
2023-01-29T23:05:32.447Z,7.20
2023-01-29T23:08:00.832Z,7.30
2023-01-29T23:10:29.269Z,6.23
2023-01-29T23:12:57.623Z,6.90
2023-01-29T23:15:26.294Z,7.07
2023-01-29T23:17:54.673Z,7.43
2023-01-29T23:20:23.166Z,6.60
2023-01-29T23:22:53.087Z,7.33
2023-01-29T23:25:21.520Z,7.40
2023-01-29T23:27:48.948Z,6.87
2023-01-29T23:30:17.684Z,6.83
2023-01-29T23:32:47.053Z,6.70
2023-01-29T23:35:15.464Z,7.63
2023-01-29T23:37:43.890Z,7.17
2023-01-29T23:40:14.387Z,7.37
2023-01-29T23:42:42.909Z,7.57
2023-01-29T23:45:11.982Z,7.07
2023-01-29T23:47:40.591Z,6.73
2023-01-29T23:50:09.399Z,7.03
2023-01-29T23:52:38.875Z,7.03
2023-01-29T23:55:07.812Z,7.20
2023-01-29T23:57:37.521Z,7.03
